createdAt,value
2017-08-20T00:00:23.329Z,63.7
2017-08-20T00:00:55.625Z,62.74
2017-08-20T00:01:27.926Z,62.83
2017-08-20T00:02:00.233Z,62.74
2017-08-20T00:02:32.534Z,62.64
2017-08-20T00:03:04.810Z,62.74
2017-08-20T00:03:37.105Z,62.64
2017-08-20T00:04:09.400Z,63.41
2017-08-20T00:04:41.715Z,63.51
2017-08-20T00:05:14.000Z,62.83
2017-08-20T00:05:46.302Z,63.7
2017-08-20T00:06:18.594Z,63.12
2017-08-20T00:06:50.894Z,62.74
2017-08-20T00:07:23.202Z,63.7
2017-08-20T00:07:55.514Z,63.79
2017-08-20T00:08:27.811Z,62.64
2017-08-20T00:09:00.095Z,62.83
2017-08-20T00:09:32.384Z,62.83
2017-08-20T00:10:04.708Z,62.93
2017-08-20T00:10:37.038Z,63.31
2017-08-20T00:11:09.360Z,62.83
2017-08-20T00:11:41.658Z,63.41
2017-08-20T00:12:13.945Z,63.79
2017-08-20T00:12:46.244Z,63.31
2017-08-20T00:13:18.538Z,63.41
2017-08-20T00:13:50.851Z,63.41
2017-08-20T00:14:23.161Z,63.31
2017-08-20T00:14:55.465Z,63.31
2017-08-20T00:15:27.778Z,63.22
2017-08-20T00:16:00.095Z,63.41
2017-08-20T00:16:32.385Z,63.31
2017-08-20T00:17:04.675Z,63.41
2017-08-20T00:17:36.967Z,63.31
2017-08-20T00:18:09.257Z,63.6
2017-08-20T00:18:41.578Z,63.6
2017-08-20T00:19:13.889Z,62.74
2017-08-20T00:19:46.171Z,63.6
2017-08-20T00:20:18.487Z,63.22
2017-08-20T00:20:50.793Z,63.12
2017-08-20T00:21:23.082Z,63.12
2017-08-20T00:21:55.370Z,63.22
2017-08-20T00:22:27.671Z,63.12
2017-08-20T00:22:59.995Z,63.12
2017-08-20T00:23:32.259Z,63.22
2017-08-20T00:24:04.528Z,63.51
2017-08-20T00:24:36.798Z,63.22
2017-08-20T00:25:09.084Z,63.22
2017-08-20T00:25:41.491Z,63.12
2017-08-20T00:26:13.751Z,63.12
2017-08-20T00:26:46.033Z,63.12
2017-08-20T00:27:18.291Z,63.22
2017-08-20T00:27:50.547Z,63.22
2017-08-20T00:28:22.834Z,63.12
2017-08-20T00:28:55.109Z,63.12
2017-08-20T00:29:27.351Z,63.12
2017-08-20T00:29:59.620Z,63.7
2017-08-20T00:30:32.690Z,63.12
2017-08-20T00:31:04.946Z,63.22
2017-08-20T00:31:37.211Z,63.12
2017-08-20T00:32:09.518Z,63.6
2017-08-20T00:32:41.799Z,63.12
2017-08-20T00:33:14.097Z,63.51
2017-08-20T00:33:46.362Z,63.02
2017-08-20T00:34:18.629Z,63.6
2017-08-20T00:34:50.885Z,63.02
2017-08-20T00:35:23.252Z,63.12
2017-08-20T00:35:55.503Z,63.12
2017-08-20T00:36:27.753Z,63.12
2017-08-20T00:37:00.037Z,63.41
2017-08-20T00:37:32.285Z,63.31
2017-08-20T00:38:04.538Z,63.12
2017-08-20T00:38:36.816Z,63.02
2017-08-20T00:39:09.080Z,63.51
2017-08-20T00:39:41.361Z,63.22
2017-08-20T00:40:13.736Z,63.22
2017-08-20T00:40:45.997Z,63.22
2017-08-20T00:41:18.251Z,63.22
2017-08-20T00:41:50.512Z,63.02
2017-08-20T00:42:22.775Z,63.31
2017-08-20T00:42:55.042Z,63.31
2017-08-20T00:43:27.332Z,63.22
2017-08-20T00:43:59.617Z,63.31
2017-08-20T00:44:31.916Z,63.31
2017-08-20T00:45:04.213Z,63.22
2017-08-20T00:45:36.561Z,63.22
2017-08-20T00:46:08.850Z,63.12
2017-08-20T00:46:41.148Z,63.22
2017-08-20T00:47:13.485Z,63.51
2017-08-20T00:47:45.792Z,63.31
2017-08-20T00:48:18.085Z,62.93
2017-08-20T00:48:50.372Z,62.93
2017-08-20T00:49:22.672Z,62.93
2017-08-20T00:49:54.954Z,63.31
2017-08-20T00:50:27.274Z,63.31
2017-08-20T00:50:59.582Z,63.31
2017-08-20T00:51:31.880Z,63.22
2017-08-20T00:52:04.170Z,63.6
2017-08-20T00:52:36.474Z,62.93
2017-08-20T00:53:08.759Z,63.31
2017-08-20T00:53:40.991Z,63.7
2017-08-20T00:54:13.245Z,63.7
2017-08-20T00:54:45.503Z,63.22
2017-08-20T00:55:17.815Z,63.31
2017-08-20T00:55:50.092Z,63.22
2017-08-20T00:56:22.351Z,63.22
2017-08-20T00:56:54.626Z,63.22
2017-08-20T00:57:26.893Z,63.31
2017-08-20T00:57:59.141Z,63.22
2017-08-20T00:58:31.428Z,63.22
2017-08-20T00:59:03.766Z,63.31
2017-08-20T00:59:36.030Z,63.41
2017-08-20T01:00:08.286Z,63.41
2017-08-20T01:00:40.567Z,63.41
2017-08-20T01:01:12.843Z,63.22
2017-08-20T01:01:45.092Z,63.51
2017-08-20T01:02:17.356Z,63.31
2017-08-20T01:02:49.630Z,63.41
2017-08-20T01:03:21.917Z,63.41
2017-08-20T01:03:54.224Z,63.41
2017-08-20T01:04:26.514Z,63.41
2017-08-20T01:04:58.790Z,63.31
2017-08-20T01:05:31.077Z,63.7
2017-08-20T01:06:03.397Z,63.31
2017-08-20T01:06:35.677Z,63.12
2017-08-20T01:07:07.950Z,63.12
2017-08-20T01:07:40.226Z,63.12
2017-08-20T01:08:12.517Z,63.31
2017-08-20T01:08:44.812Z,63.12
2017-08-20T01:09:17.097Z,63.79
2017-08-20T01:09:49.385Z,63.12
2017-08-20T01:10:21.681Z,63.12
2017-08-20T01:10:53.991Z,63.02
2017-08-20T01:11:26.273Z,62.93
2017-08-20T01:11:58.575Z,63.89
2017-08-20T01:12:30.859Z,63.02
2017-08-20T01:13:03.165Z,62.93
2017-08-20T01:13:35.438Z,63.41
2017-08-20T01:14:07.771Z,63.02
2017-08-20T01:14:40.045Z,63.02
2017-08-20T01:15:12.310Z,63.99
2017-08-20T01:15:44.583Z,62.93
2017-08-20T01:16:16.839Z,63.12
2017-08-20T01:16:49.104Z,62.93
2017-08-20T01:17:21.379Z,63.89
2017-08-20T01:17:53.643Z,63.41
2017-08-20T01:18:25.930Z,63.89
2017-08-20T01:18:58.182Z,63.02
2017-08-20T01:19:30.453Z,62.93
2017-08-20T01:20:02.710Z,63.02
2017-08-20T01:20:34.978Z,63.89
2017-08-20T01:21:07.228Z,63.79
2017-08-20T01:21:39.492Z,63.79
2017-08-20T01:22:11.750Z,63.12
2017-08-20T01:22:44.000Z,63.02
2017-08-20T01:23:16.263Z,64.08
2017-08-20T01:23:49.132Z,63.12
2017-08-20T01:24:21.401Z,63.12
2017-08-20T01:24:53.656Z,63.41
2017-08-20T01:25:25.939Z,63.51
2017-08-20T01:25:58.223Z,63.31
2017-08-20T01:26:30.478Z,63.51
2017-08-20T01:27:02.764Z,63.12
2017-08-20T01:27:35.021Z,63.51
2017-08-20T01:28:07.314Z,62.93
2017-08-20T01:28:39.553Z,63.41
2017-08-20T01:29:11.878Z,63.12
2017-08-20T01:29:44.165Z,63.79
2017-08-20T01:30:16.417Z,63.99
2017-08-20T01:30:48.683Z,63.12
2017-08-20T01:31:20.972Z,63.6
2017-08-20T01:31:53.209Z,63.12
2017-08-20T01:32:25.503Z,63.51
2017-08-20T01:32:57.782Z,63.22
2017-08-20T01:33:30.040Z,63.31
2017-08-20T01:34:02.461Z,63.31
2017-08-20T01:34:34.793Z,63.99
2017-08-20T01:35:07.053Z,63.31
2017-08-20T01:35:39.311Z,63.22
2017-08-20T01:36:11.677Z,63.31
2017-08-20T01:36:43.970Z,63.41
2017-08-20T01:37:16.246Z,63.31
2017-08-20T01:37:48.527Z,63.89
2017-08-20T01:38:20.781Z,63.41
2017-08-20T01:38:53.045Z,63.31
2017-08-20T01:39:25.457Z,63.41
2017-08-20T01:39:57.710Z,63.89
2017-08-20T01:40:29.955Z,63.41
2017-08-20T01:41:02.257Z,63.31
2017-08-20T01:41:34.593Z,63.31
2017-08-20T01:42:06.892Z,63.41
2017-08-20T01:42:39.149Z,63.41
2017-08-20T01:43:11.427Z,63.41
2017-08-20T01:43:43.711Z,63.31
2017-08-20T01:44:16.002Z,63.89
2017-08-20T01:44:48.285Z,63.12
2017-08-20T01:45:20.567Z,63.31
2017-08-20T01:45:52.879Z,63.31
2017-08-20T01:46:25.176Z,63.89
2017-08-20T01:46:57.489Z,63.79
2017-08-20T01:47:29.777Z,63.31
2017-08-20T01:48:02.090Z,63.31
2017-08-20T01:48:34.389Z,63.41
2017-08-20T01:49:06.680Z,63.51
2017-08-20T01:49:38.978Z,63.31
2017-08-20T01:50:11.261Z,63.31
2017-08-20T01:50:43.539Z,63.51
2017-08-20T01:51:15.856Z,63.89
2017-08-20T01:51:48.167Z,63.51
2017-08-20T01:52:20.489Z,63.31
2017-08-20T01:52:52.802Z,63.79
2017-08-20T01:53:25.093Z,63.31
2017-08-20T01:53:57.395Z,63.22
2017-08-20T01:54:29.695Z,63.31
2017-08-20T01:55:01.998Z,63.31
2017-08-20T01:55:34.295Z,63.31
2017-08-20T01:56:06.582Z,63.48
2017-08-20T01:56:38.895Z,63.6
2017-08-20T01:57:11.196Z,64.28
2017-08-20T01:57:43.509Z,63.99
2017-08-20T01:58:15.804Z,63.31
2017-08-20T01:58:48.112Z,63.31
2017-08-20T01:59:20.396Z,63.41
2017-08-20T01:59:52.668Z,63.41
2017-08-20T02:00:24.972Z,63.41
2017-08-20T02:00:57.255Z,63.41
2017-08-20T02:01:29.555Z,63.41
2017-08-20T02:02:01.860Z,63.22
2017-08-20T02:02:34.142Z,63.51
2017-08-20T02:03:06.431Z,64.08
2017-08-20T02:03:38.710Z,63.41
2017-08-20T02:04:10.995Z,63.41
2017-08-20T02:04:43.303Z,63.51
2017-08-20T02:05:15.605Z,63.41
2017-08-20T02:05:47.893Z,63.41
2017-08-20T02:06:20.208Z,63.31
2017-08-20T02:06:52.499Z,63.41
2017-08-20T02:07:24.795Z,63.51
2017-08-20T02:07:57.098Z,63.41
2017-08-20T02:08:29.369Z,63.41
2017-08-20T02:09:01.663Z,64.18
2017-08-20T02:09:33.953Z,63.7
2017-08-20T02:10:06.290Z,64.08
2017-08-20T02:10:38.596Z,63.51
2017-08-20T02:11:10.880Z,63.51
2017-08-20T02:11:43.189Z,64.28
2017-08-20T02:12:15.505Z,63.51
2017-08-20T02:12:47.812Z,63.51
2017-08-20T02:13:20.091Z,63.51
2017-08-20T02:13:52.346Z,63.51
2017-08-20T02:14:24.593Z,63.99
2017-08-20T02:14:56.931Z,63.7
2017-08-20T02:15:29.212Z,63.7
2017-08-20T02:16:01.451Z,63.6
2017-08-20T02:16:33.718Z,63.79
2017-08-20T02:17:05.979Z,64.08
2017-08-20T02:17:38.236Z,63.51
2017-08-20T02:18:10.486Z,63.6
2017-08-20T02:18:42.773Z,63.31
2017-08-20T02:19:15.022Z,63.7
2017-08-20T02:19:47.269Z,64.18
2017-08-20T02:20:19.567Z,64.08
2017-08-20T02:20:51.826Z,63.6
2017-08-20T02:21:24.096Z,64.08
2017-08-20T02:21:56.359Z,63.7
2017-08-20T02:22:28.602Z,64.18
2017-08-20T02:23:00.857Z,64.18
2017-08-20T02:23:33.124Z,63.41
2017-08-20T02:24:05.395Z,63.7
2017-08-20T02:24:37.744Z,63.7
2017-08-20T02:25:10.010Z,63.7
2017-08-20T02:25:42.277Z,63.99
2017-08-20T02:26:14.537Z,63.57
2017-08-20T02:26:46.834Z,63.7
2017-08-20T02:27:19.121Z,63.7
2017-08-20T02:27:51.382Z,64.18
2017-08-20T02:28:23.695Z,64.18
2017-08-20T02:28:55.983Z,63.7
2017-08-20T02:29:28.240Z,64.15
2017-08-20T02:30:00.488Z,63.7
2017-08-20T02:30:32.760Z,63.67
2017-08-20T02:31:05.013Z,63.6
2017-08-20T02:31:37.273Z,63.6
2017-08-20T02:32:09.574Z,63.6
2017-08-20T02:32:41.836Z,63.6
2017-08-20T02:33:14.108Z,63.67
2017-08-20T02:33:46.375Z,63.67
2017-08-20T02:34:18.661Z,63.67
2017-08-20T02:34:50.918Z,63.31
2017-08-20T02:35:23.182Z,63.7
2017-08-20T02:35:55.593Z,63.67
2017-08-20T02:36:27.847Z,63.76
2017-08-20T02:37:00.098Z,63.67
2017-08-20T02:37:32.366Z,63.18
2017-08-20T02:38:04.646Z,63.48
2017-08-20T02:38:37.024Z,63.57
2017-08-20T02:39:09.294Z,63.67
2017-08-20T02:39:41.638Z,63.57
2017-08-20T02:40:13.877Z,63.6
2017-08-20T02:40:46.153Z,63.89
2017-08-20T02:41:18.430Z,63.57
2017-08-20T02:41:50.688Z,63.95
2017-08-20T02:42:22.969Z,63.67
2017-08-20T02:42:55.244Z,63.28
2017-08-20T02:43:27.507Z,63.95
2017-08-20T02:43:59.781Z,63.67
2017-08-20T02:44:32.051Z,63.57
2017-08-20T02:45:04.302Z,63.67
2017-08-20T02:45:36.582Z,63.57
2017-08-20T02:46:08.836Z,63.57
2017-08-20T02:46:41.099Z,63.67
2017-08-20T02:47:13.370Z,63.95
2017-08-20T02:47:45.632Z,63.76
2017-08-20T02:48:17.879Z,63.67
2017-08-20T02:48:50.124Z,63.57
2017-08-20T02:49:22.391Z,63.7
2017-08-20T02:49:54.670Z,63.67
2017-08-20T02:50:27.064Z,63.99
2017-08-20T02:50:59.348Z,63.67
2017-08-20T02:51:31.611Z,63.67
2017-08-20T02:52:03.922Z,63.67
2017-08-20T02:52:36.200Z,63.76
2017-08-20T02:53:08.478Z,64.15
2017-08-20T02:53:40.738Z,63.76
2017-08-20T02:54:13.011Z,63.95
2017-08-20T02:54:45.271Z,63.67
2017-08-20T02:55:17.508Z,63.67
2017-08-20T02:55:49.777Z,63.67
2017-08-20T02:56:22.057Z,64.05
2017-08-20T02:56:54.320Z,63.67
2017-08-20T02:57:26.610Z,63.76
2017-08-20T02:57:58.880Z,64.05
2017-08-20T02:58:31.197Z,63.86
2017-08-20T02:59:03.458Z,63.76
2017-08-20T02:59:35.722Z,63.57
2017-08-20T03:00:08.064Z,63.38
2017-08-20T03:00:40.337Z,63.67
2017-08-20T03:01:12.591Z,63.76
2017-08-20T03:01:44.856Z,64.05
2017-08-20T03:02:17.113Z,63.48
2017-08-20T03:02:49.368Z,63.67
2017-08-20T03:03:21.664Z,63.57
2017-08-20T03:03:53.977Z,64.25
2017-08-20T03:04:26.273Z,63.48
2017-08-20T03:04:58.574Z,63.57
2017-08-20T03:05:30.863Z,63.57
2017-08-20T03:06:03.159Z,63.95
2017-08-20T03:06:35.431Z,63.57
2017-08-20T03:07:07.746Z,63.76
2017-08-20T03:07:40.042Z,63.76
2017-08-20T03:08:12.331Z,63.48
2017-08-20T03:08:44.636Z,63.57
2017-08-20T03:09:16.931Z,63.76
2017-08-20T03:09:49.229Z,63.76
2017-08-20T03:10:21.550Z,63.86
2017-08-20T03:10:53.824Z,63.57
2017-08-20T03:11:26.140Z,63.95
2017-08-20T03:11:58.458Z,63.67
2017-08-20T03:12:30.768Z,63.57
2017-08-20T03:13:03.075Z,63.95
2017-08-20T03:13:35.367Z,63.99
2017-08-20T03:14:07.621Z,63.76
2017-08-20T03:14:39.859Z,63.57
2017-08-20T03:15:12.118Z,63.95
2017-08-20T03:15:44.355Z,63.57
2017-08-20T03:16:16.677Z,64.15
2017-08-20T03:16:48.983Z,63.7
2017-08-20T03:17:21.271Z,64.25
2017-08-20T03:17:53.511Z,63.76
2017-08-20T03:18:25.764Z,63.95
2017-08-20T03:18:58.120Z,64.15
2017-08-20T03:19:30.383Z,63.57
2017-08-20T03:20:02.630Z,63.67
2017-08-20T03:20:34.900Z,63.86
2017-08-20T03:21:07.204Z,63.57
2017-08-20T03:21:39.466Z,64.34
2017-08-20T03:22:11.727Z,63.95
2017-08-20T03:22:44.013Z,63.95
2017-08-20T03:23:16.287Z,63.67
2017-08-20T03:23:48.589Z,64.25
2017-08-20T03:24:20.884Z,64.15
2017-08-20T03:24:53.186Z,63.67
2017-08-20T03:25:25.500Z,63.67
2017-08-20T03:25:57.790Z,63.95
2017-08-20T03:26:30.070Z,63.95
2017-08-20T03:27:02.372Z,63.86
2017-08-20T03:27:34.683Z,64.15
2017-08-20T03:28:06.982Z,64.15
2017-08-20T03:28:39.276Z,64.15
2017-08-20T03:29:11.552Z,64.15
2017-08-20T03:29:43.846Z,64.15
2017-08-20T03:30:16.142Z,64.05
2017-08-20T03:30:48.452Z,64.15
2017-08-20T03:31:20.745Z,64.15
2017-08-20T03:31:53.041Z,64.15
2017-08-20T03:32:25.347Z,64.15
2017-08-20T03:32:57.640Z,64.43
2017-08-20T03:33:29.936Z,64.05
2017-08-20T03:34:02.244Z,64.25
2017-08-20T03:34:34.561Z,64.34
2017-08-20T03:35:06.876Z,63.89
2017-08-20T03:35:39.192Z,64.15
2017-08-20T03:36:11.478Z,64.25
2017-08-20T03:36:43.780Z,64.15
2017-08-20T03:37:16.059Z,64.25
2017-08-20T03:37:48.325Z,64.25
2017-08-20T03:38:20.616Z,63.67
2017-08-20T03:38:52.916Z,64.25
2017-08-20T03:39:25.214Z,64.34
2017-08-20T03:39:57.508Z,63.86
2017-08-20T03:40:29.813Z,64.15
2017-08-20T03:41:02.115Z,64.25
2017-08-20T03:41:34.418Z,64.25
2017-08-20T03:42:06.718Z,63.67
2017-08-20T03:42:39.008Z,64.15
2017-08-20T03:43:11.285Z,64.25
2017-08-20T03:43:43.576Z,64.25
2017-08-20T03:44:15.848Z,64.25
2017-08-20T03:44:48.102Z,64.25
2017-08-20T03:45:20.364Z,64.25
2017-08-20T03:45:52.614Z,64.25
2017-08-20T03:46:24.974Z,64.34
2017-08-20T03:46:57.229Z,64.34
2017-08-20T03:47:29.478Z,64.34
2017-08-20T03:48:01.788Z,64.34
2017-08-20T03:48:34.033Z,64.15
2017-08-20T03:49:07.259Z,64.25
2017-08-20T03:49:39.553Z,64.15
2017-08-20T03:50:11.811Z,64.25
2017-08-20T03:50:44.081Z,64.25
2017-08-20T03:51:16.337Z,64.15
2017-08-20T03:51:48.590Z,64.15
2017-08-20T03:52:20.943Z,64.25
2017-08-20T03:52:53.223Z,64.15
2017-08-20T03:53:25.532Z,64.15
2017-08-20T03:53:57.812Z,64.25
2017-08-20T03:54:30.109Z,64.25
2017-08-20T03:55:02.398Z,64.25
2017-08-20T03:55:34.689Z,64.15
2017-08-20T03:56:06.983Z,64.25
2017-08-20T03:56:39.299Z,64.34
2017-08-20T03:57:11.591Z,64.15
2017-08-20T03:57:43.915Z,64.05
2017-08-20T03:58:16.215Z,64.15
2017-08-20T03:58:48.522Z,64.15
2017-08-20T03:59:20.804Z,64.05
2017-08-20T03:59:53.105Z,64.15
2017-08-20T04:00:25.383Z,63.86
2017-08-20T04:00:57.676Z,64.15
2017-08-20T04:01:29.989Z,64.15
2017-08-20T04:02:02.281Z,64.15
2017-08-20T04:02:34.591Z,64.34
2017-08-20T04:03:06.889Z,64.15
2017-08-20T04:03:39.274Z,64.15
2017-08-20T04:04:11.554Z,64.05
2017-08-20T04:04:43.805Z,64.15
2017-08-20T04:05:16.056Z,64.34
2017-08-20T04:05:48.311Z,64.05
2017-08-20T04:06:20.567Z,64.43
2017-08-20T04:06:52.852Z,64.25
2017-08-20T04:07:25.117Z,64.53
2017-08-20T04:07:57.386Z,64.25
2017-08-20T04:08:29.634Z,64.43
2017-08-20T04:09:01.903Z,64.92
2017-08-20T04:09:34.191Z,63.76
2017-08-20T04:10:06.470Z,64.05
2017-08-20T04:10:38.730Z,63.95
2017-08-20T04:11:10.981Z,64.05
2017-08-20T04:11:43.226Z,63.86
2017-08-20T04:12:15.520Z,63.86
2017-08-20T04:12:47.781Z,63.95
2017-08-20T04:13:20.026Z,63.86
2017-08-20T04:13:52.317Z,64.34
2017-08-20T04:14:24.620Z,64.15
2017-08-20T04:14:56.903Z,64.92
2017-08-20T04:15:29.186Z,63.95
2017-08-20T04:16:01.473Z,64.15
2017-08-20T04:16:33.743Z,63.86
2017-08-20T04:17:06.042Z,64.05
2017-08-20T04:17:38.340Z,64.05
2017-08-20T04:18:10.645Z,64.25
2017-08-20T04:18:42.949Z,64.82
2017-08-20T04:19:15.269Z,64.05
2017-08-20T04:19:47.571Z,64.25
2017-08-20T04:20:19.875Z,64.05
2017-08-20T04:20:52.162Z,64.15
2017-08-20T04:21:24.461Z,64.05
2017-08-20T04:21:56.747Z,64.05
2017-08-20T04:22:29.047Z,64.53
2017-08-20T04:23:01.335Z,64.25
2017-08-20T04:23:33.591Z,64.15
2017-08-20T04:24:05.837Z,64.25
2017-08-20T04:24:38.202Z,64.34
2017-08-20T04:25:10.469Z,64.25
2017-08-20T04:25:42.745Z,64.05
2017-08-20T04:26:14.991Z,64.05
2017-08-20T04:26:47.232Z,64.25
2017-08-20T04:27:19.480Z,64.34
2017-08-20T04:27:51.728Z,64.25
2017-08-20T04:28:24.010Z,64.25
2017-08-20T04:28:56.301Z,64.63
2017-08-20T04:29:28.585Z,64.43
2017-08-20T04:30:00.828Z,64.34
2017-08-20T04:30:33.091Z,64.15
2017-08-20T04:31:05.365Z,64.34
2017-08-20T04:31:37.697Z,64.43
2017-08-20T04:32:09.962Z,64.43
2017-08-20T04:32:42.226Z,64.43
2017-08-20T04:33:14.502Z,64.34
2017-08-20T04:33:46.777Z,64.92
2017-08-20T04:34:19.063Z,64.43
2017-08-20T04:34:51.409Z,64.25
2017-08-20T04:35:23.662Z,64.43
2017-08-20T04:35:56.080Z,64.82
2017-08-20T04:36:28.341Z,64.43
2017-08-20T04:37:00.610Z,64.73
2017-08-20T04:37:32.877Z,64.53
2017-08-20T04:38:05.127Z,64.34
2017-08-20T04:38:37.495Z,64.43
2017-08-20T04:39:09.754Z,64.34
2017-08-20T04:39:42.006Z,64.43
2017-08-20T04:40:14.269Z,64.73
2017-08-20T04:40:46.551Z,64.43
2017-08-20T04:41:18.820Z,64.43
2017-08-20T04:41:51.243Z,64.53
2017-08-20T04:42:23.486Z,64.43
2017-08-20T04:42:55.776Z,64.43
2017-08-20T04:43:28.136Z,64.53
2017-08-20T04:44:00.397Z,64.43
2017-08-20T04:44:32.660Z,64.53
2017-08-20T04:45:04.916Z,64.53
2017-08-20T04:45:37.167Z,64.63
2017-08-20T04:46:09.412Z,64.73
2017-08-20T04:46:41.661Z,64.73
2017-08-20T04:47:13.923Z,64.53
2017-08-20T04:47:46.238Z,64.43
2017-08-20T04:48:18.499Z,64.43
2017-08-20T04:48:50.742Z,64.43
2017-08-20T04:49:23.001Z,64.43
2017-08-20T04:49:55.284Z,64.63
2017-08-20T04:50:27.541Z,64.53
2017-08-20T04:50:59.812Z,64.34
2017-08-20T04:51:32.084Z,64.34
2017-08-20T04:52:04.341Z,64.43
2017-08-20T04:52:36.666Z,64.53
2017-08-20T04:53:08.929Z,64.43
2017-08-20T04:53:41.259Z,64.63
2017-08-20T04:54:13.527Z,64.43
2017-08-20T04:54:45.813Z,64.34
2017-08-20T04:55:18.147Z,64.43
2017-08-20T04:55:50.396Z,64.73
2017-08-20T04:56:22.671Z,64.53
2017-08-20T04:56:54.931Z,64.53
2017-08-20T04:57:27.225Z,64.63
2017-08-20T04:57:59.508Z,64.63
2017-08-20T04:58:31.836Z,64.63
2017-08-20T04:59:04.113Z,64.53
2017-08-20T04:59:36.369Z,64.43
2017-08-20T05:00:08.627Z,64.43
2017-08-20T05:00:40.873Z,64.63
2017-08-20T05:01:13.146Z,64.43
2017-08-20T05:01:45.401Z,64.63
2017-08-20T05:02:17.708Z,64.63
2017-08-20T05:02:49.985Z,64.43
2017-08-20T05:03:22.223Z,64.53
2017-08-20T05:03:54.469Z,64.43
2017-08-20T05:04:26.742Z,64.43
2017-08-20T05:04:59.006Z,64.43
2017-08-20T05:05:31.284Z,64.34
2017-08-20T05:06:03.567Z,64.43
2017-08-20T05:06:35.815Z,64.43
2017-08-20T05:07:08.090Z,64.53
2017-08-20T05:07:40.322Z,64.34
2017-08-20T05:08:13.253Z,64.73
2017-08-20T05:08:45.515Z,64.63
2017-08-20T05:09:17.792Z,64.43
2017-08-20T05:09:50.024Z,64.43
2017-08-20T05:10:22.281Z,64.34
2017-08-20T05:10:54.614Z,64.53
2017-08-20T05:11:26.903Z,64.53
2017-08-20T05:11:59.151Z,64.53
2017-08-20T05:12:31.425Z,64.43
2017-08-20T05:13:03.707Z,64.63
2017-08-20T05:13:35.968Z,64.43
2017-08-20T05:14:08.245Z,64.63
2017-08-20T05:14:40.500Z,64.43
2017-08-20T05:15:12.767Z,64.43
2017-08-20T05:15:45.042Z,64.63
2017-08-20T05:16:17.311Z,64.43
2017-08-20T05:16:49.571Z,64.34
2017-08-20T05:17:21.847Z,64.56
2017-08-20T05:17:54.224Z,64.34
2017-08-20T05:18:26.482Z,64.63
2017-08-20T05:18:58.758Z,64.43
2017-08-20T05:19:31.041Z,64.63
2017-08-20T05:20:03.282Z,64.43
2017-08-20T05:20:35.543Z,64.53
2017-08-20T05:21:07.926Z,64.53
2017-08-20T05:21:40.196Z,64.53
2017-08-20T05:22:12.440Z,64.43
2017-08-20T05:22:44.746Z,64.43
2017-08-20T05:23:17.007Z,64.53
2017-08-20T05:23:49.298Z,64.43
2017-08-20T05:24:21.579Z,64.34
2017-08-20T05:24:53.831Z,64.53
2017-08-20T05:25:26.082Z,64.34
2017-08-20T05:25:58.341Z,64.53
2017-08-20T05:26:30.609Z,64.37
2017-08-20T05:27:02.885Z,64.43
2017-08-20T05:27:35.255Z,64.63
2017-08-20T05:28:07.524Z,64.28
2017-08-20T05:28:39.767Z,64.25
2017-08-20T05:29:12.047Z,64.43
2017-08-20T05:29:44.889Z,64.18
2017-08-20T05:30:17.154Z,64.43
2017-08-20T05:30:49.472Z,64.47
2017-08-20T05:31:21.741Z,64.08
2017-08-20T05:31:54.065Z,64.47
2017-08-20T05:32:26.350Z,64.28
2017-08-20T05:32:58.637Z,64.47
2017-08-20T05:33:30.882Z,64.18
2017-08-20T05:34:03.139Z,64.47
2017-08-20T05:34:35.436Z,64.08
2017-08-20T05:35:07.698Z,64.86
2017-08-20T05:35:39.956Z,63.99
2017-08-20T05:36:12.225Z,64.08
2017-08-20T05:36:44.474Z,64.28
2017-08-20T05:37:16.740Z,63.99
2017-08-20T05:37:49.016Z,64.08
2017-08-20T05:38:21.313Z,64.05
2017-08-20T05:38:53.607Z,63.99
2017-08-20T05:39:25.876Z,63.99
2017-08-20T05:39:58.139Z,64.18
2017-08-20T05:40:30.396Z,64.56
2017-08-20T05:41:02.656Z,64.47
2017-08-20T05:41:35.008Z,64.18
2017-08-20T05:42:07.268Z,64.28
2017-08-20T05:42:39.547Z,64.18
2017-08-20T05:43:11.837Z,64.28
2017-08-20T05:43:44.114Z,64.28
2017-08-20T05:44:16.416Z,64.28
2017-08-20T05:44:48.713Z,64.47
2017-08-20T05:45:21.017Z,64.28
2017-08-20T05:45:53.309Z,64.28
2017-08-20T05:46:25.608Z,64.28
2017-08-20T05:46:57.903Z,64.28
2017-08-20T05:47:30.214Z,64.28
2017-08-20T05:48:02.520Z,64.28
2017-08-20T05:48:34.824Z,64.18
2017-08-20T05:49:07.111Z,64.56
2017-08-20T05:49:39.393Z,64.08
2017-08-20T05:50:11.702Z,64.18
2017-08-20T05:50:44.009Z,63.99
2017-08-20T05:51:16.302Z,63.89
2017-08-20T05:51:48.607Z,63.99
2017-08-20T05:52:20.922Z,63.7
2017-08-20T05:52:53.220Z,64.08
2017-08-20T05:53:25.529Z,63.51
2017-08-20T05:53:57.837Z,63.99
2017-08-20T05:54:30.131Z,63.99
2017-08-20T05:55:02.424Z,63.79
2017-08-20T05:55:34.716Z,63.99
2017-08-20T05:56:07.047Z,63.73
2017-08-20T05:56:39.356Z,63.73
2017-08-20T05:57:11.946Z,63.25
2017-08-20T05:57:44.901Z,63.73
2017-08-20T05:58:17.208Z,63.82
2017-08-20T05:58:49.491Z,63.64
2017-08-20T05:59:21.786Z,64.02
2017-08-20T05:59:54.062Z,63.44
2017-08-20T06:00:26.363Z,63.7
2017-08-20T06:00:58.659Z,64.31
2017-08-20T06:01:30.950Z,63.73
2017-08-20T06:02:03.239Z,63.54
2017-08-20T06:02:35.537Z,63.73
2017-08-20T06:03:07.846Z,63.73
2017-08-20T06:03:40.136Z,64.02
2017-08-20T06:04:12.442Z,63.82
2017-08-20T06:04:44.753Z,63.73
2017-08-20T06:05:17.043Z,63.64
2017-08-20T06:05:49.340Z,63.54
2017-08-20T06:06:21.641Z,63.64
2017-08-20T06:06:53.933Z,63.54
2017-08-20T06:07:26.207Z,64.12
2017-08-20T06:07:58.527Z,64.4
2017-08-20T06:08:30.829Z,64.12
2017-08-20T06:09:03.117Z,63.44
2017-08-20T06:09:35.427Z,63.44
2017-08-20T06:10:07.728Z,63.25
2017-08-20T06:10:40.023Z,64.12
2017-08-20T06:11:12.320Z,63.34
2017-08-20T06:11:44.608Z,63.34
2017-08-20T06:12:16.914Z,63.34
2017-08-20T06:12:49.193Z,63.92
2017-08-20T06:13:21.480Z,63.92
2017-08-20T06:13:53.759Z,64.15
2017-08-20T06:14:26.049Z,63.38
2017-08-20T06:14:58.354Z,63.47
2017-08-20T06:15:30.672Z,63.57
2017-08-20T06:16:02.974Z,63.47
2017-08-20T06:16:35.268Z,62.9
2017-08-20T06:17:07.575Z,63.47
2017-08-20T06:17:39.861Z,63.09
2017-08-20T06:18:12.160Z,63.18
2017-08-20T06:18:44.467Z,63.18
2017-08-20T06:19:16.754Z,63.76
2017-08-20T06:19:49.033Z,63.47
2017-08-20T06:20:21.328Z,63.38
2017-08-20T06:20:53.603Z,63.28
2017-08-20T06:21:25.895Z,63.38
2017-08-20T06:21:58.194Z,63.47
2017-08-20T06:22:30.484Z,63.38
2017-08-20T06:23:02.805Z,63.28
2017-08-20T06:23:35.088Z,63.57
2017-08-20T06:24:07.401Z,63.18
2017-08-20T06:24:39.699Z,63.47
2017-08-20T06:25:11.989Z,63.28
2017-08-20T06:25:44.292Z,63.18
2017-08-20T06:26:16.616Z,63.18
2017-08-20T06:26:48.923Z,63.47
2017-08-20T06:27:21.236Z,63.21
2017-08-20T06:27:53.524Z,63.21
2017-08-20T06:28:25.822Z,63.6
2017-08-20T06:28:58.100Z,63.7
2017-08-20T06:29:30.401Z,63.31
2017-08-20T06:30:02.711Z,63.31
2017-08-20T06:30:34.983Z,63.7
2017-08-20T06:31:07.293Z,63.5
2017-08-20T06:31:39.572Z,63.31
2017-08-20T06:32:11.886Z,62.93
2017-08-20T06:32:44.193Z,63.79
2017-08-20T06:33:16.485Z,62.83
2017-08-20T06:33:48.768Z,62.63
2017-08-20T06:34:21.043Z,62.63
2017-08-20T06:34:53.325Z,62.93
2017-08-20T06:35:25.741Z,62.73
2017-08-20T06:35:58.034Z,62.93
2017-08-20T06:36:30.309Z,63.12
2017-08-20T06:37:02.578Z,62.93
2017-08-20T06:37:34.827Z,63.31
2017-08-20T06:38:07.112Z,62.73
2017-08-20T06:38:39.403Z,62.93
2017-08-20T06:39:11.715Z,63.31
2017-08-20T06:39:43.988Z,63.44
2017-08-20T06:40:16.298Z,62.86
2017-08-20T06:40:48.573Z,62.76
2017-08-20T06:41:20.859Z,62.76
2017-08-20T06:41:53.147Z,62.76
2017-08-20T06:42:25.405Z,62.66
2017-08-20T06:42:57.666Z,63.34
2017-08-20T06:43:29.971Z,63.44
2017-08-20T06:44:02.284Z,62.86
2017-08-20T06:44:34.567Z,63.34
2017-08-20T06:45:06.878Z,62.86
2017-08-20T06:45:39.189Z,63.34
2017-08-20T06:46:11.491Z,62.76
2017-08-20T06:46:43.770Z,62.96
2017-08-20T06:47:16.079Z,62.96
2017-08-20T06:47:48.376Z,62.86
2017-08-20T06:48:20.664Z,62.76
2017-08-20T06:48:52.951Z,63.54
2017-08-20T06:49:25.246Z,62.86
2017-08-20T06:49:57.557Z,62.99
2017-08-20T06:50:29.849Z,62.7
2017-08-20T06:51:02.137Z,62.6
2017-08-20T06:51:34.461Z,62.99
2017-08-20T06:52:06.778Z,62.86
2017-08-20T06:52:39.053Z,62.7
2017-08-20T06:53:11.359Z,62.6
2017-08-20T06:53:43.662Z,62.79
2017-08-20T06:54:15.945Z,62.31
2017-08-20T06:54:48.225Z,62.89
2017-08-20T06:55:20.516Z,62.22
2017-08-20T06:55:52.814Z,62.31
2017-08-20T06:56:25.093Z,62.41
2017-08-20T06:56:57.372Z,62.22